Evolution — 2FKB6 — position and weather

sailwx.info

Track history (hours):
 
Tides and Currents Weather Stations Pressure Air Temp Water Temp Dewpoint Dewpoint Depression Visibility Wind Speed Wind Dir Waves Ship Positions

Evolution

Last reported at 2015-Aug-03 14:23 UTC. Time now 2015-Aug-04 09:39 UTC.
Position N 37°44' W 025°40'.

Type: Sailing vessel. MMSI: 235091936.

Date/timePositionNaut miles runAvg speedWind from/ knotsBaromVisibWave heightAir tempDewpointWater temp
2015-Aug-03 14:23N 37°44' W 025°40'2 2.9
2015-Aug-03 13:33N 37°44' W 025°43'7 7.2
2015-Aug-03 12:33N 37°46' W 025°51'6 6.0
2015-Aug-03 11:34N 37°48' W 025°59'6 6.0
2015-Aug-03 10:33N 37°50' W 026°06'6 6.0
2015-Aug-03 09:33N 37°52' W 026°13'6 5.8
2015-Aug-03 08:33N 37°53' W 026°20'6 6.0
2015-Aug-03 07:33N 37°55' W 026°28'7 6.6
2015-Aug-03 06:33N 37°57' W 026°36'6 6.2
2015-Aug-03 05:33N 37°59' W 026°43'6 6.4
2015-Aug-03 04:34N 38°01' W 026°51'6 6.5
2015-Aug-03 03:33N 38°03' W 026°59'16 7.3
2015-Aug-03 01:23N 38°08' W 027°18'6 6.8
2015-Aug-03 00:33N 38°10' W 027°24'7 7.2
2015-Aug-02 23:33N 38°12' W 027°33'7 7.4
2015-Aug-02 22:33N 38°14' W 027°42'7 6.9
2015-Aug-02 21:34N 38°16' W 027°51'7 6.9
2015-Aug-02 20:33N 38°18' W 027°59'6 6.3
2015-Aug-02 19:33N 38°20' W 028°06'5 5.3
2015-Aug-02 18:33N 38°21' W 028°13'5 5.4
2015-Aug-02 17:33N 38°23' W 028°20'5 4.8
2015-Aug-02 16:33N 38°24' W 028°26'5 5.3
2015-Aug-02 15:33N 38°27' W 028°32'7 7.0
2015-Aug-02 14:33N 38°32' W 028°37'  
2015-Jul-25 09:33N 38°32' W 028°37'  
Track history (hours):
 
Tides and Currents Weather Stations Pressure Air Temp Water Temp Dewpoint Dewpoint Depression Visibility Wind Speed Wind Dir Waves Ship Positions

Evolution

Last reported at 2015-Aug-03 14:23 UTC. Time now 2015-Aug-04 09:39 UTC.
Position N 37°44' W 025°40'.

Type: Sailing vessel. MMSI: 235091936.

Date/timePositionNaut miles runAvg speedWind from/ knotsBaromVisibWave heightAir tempDewpointWater temp
2015-Aug-03 14:23N 37°44' W 025°40'2 2.9
2015-Aug-03 13:33N 37°44' W 025°43'7 7.2
2015-Aug-03 12:33N 37°46' W 025°51'6 6.0
2015-Aug-03 11:34N 37°48' W 025°59'6 6.0
2015-Aug-03 10:33N 37°50' W 026°06'6 6.0
2015-Aug-03 09:33N 37°52' W 026°13'6 5.8
2015-Aug-03 08:33N 37°53' W 026°20'6 6.0
2015-Aug-03 07:33N 37°55' W 026°28'7 6.6
2015-Aug-03 06:33N 37°57' W 026°36'6 6.2
2015-Aug-03 05:33N 37°59' W 026°43'6 6.4
2015-Aug-03 04:34N 38°01' W 026°51'6 6.5
2015-Aug-03 03:33N 38°03' W 026°59'16 7.3
2015-Aug-03 01:23N 38°08' W 027°18'6 6.8
2015-Aug-03 00:33N 38°10' W 027°24'7 7.2
2015-Aug-02 23:33N 38°12' W 027°33'7 7.4
2015-Aug-02 22:33N 38°14' W 027°42'7 6.9
2015-Aug-02 21:34N 38°16' W 027°51'7 6.9
2015-Aug-02 20:33N 38°18' W 027°59'6 6.3
2015-Aug-02 19:33N 38°20' W 028°06'5 5.3
2015-Aug-02 18:33N 38°21' W 028°13'5 5.4
2015-Aug-02 17:33N 38°23' W 028°20'5 4.8
2015-Aug-02 16:33N 38°24' W 028°26'5 5.3
2015-Aug-02 15:33N 38°27' W 028°32'7 7.0
2015-Aug-02 14:33N 38°32' W 028°37'  
2015-Jul-25 09:33N 38°32' W 028°37'  

Dump ship's entire track history